Latest Coastal Weather Observations for Burnie Port

IDT60701

Issued at 2:25 pm EDT Wednesday 22 October 2014 (issued every 10 minutes, with the page automatically refreshed every 10 minutes)

About coastal observations | Map of coastal stations | Coastal observations for TAS | Marine services | Other Formats
Station Details ID: 091344 Name: BURNIE NTC AWS Lat: -41.05 Lon: 145.91 Height: 0.0 m
Data from the previous 72 hours. | See also: Recent months for locations in Tasmania
Date/Time
EDT
Temp

°C
Wind Pressure Rain
since 9am
mm
Weather Cloud Vis
km
Sea
Height
m
Swell
Dir
 
Speed
knots
Gust
knots
hPa Trend Height
m
Period
s
Dir
22/02:00pm 14.7 E 7 8 1017.5 - - - - - - - - -
22/01:30pm 14.8 E 8 10 1017.8 - - - - - - - - -
22/01:00pm 14.7 E 10 12 1018.3 - - - - - - - - -
22/12:30pm 14.9 ESE 10 12 1019.0 - - - - - - - - -
22/12:00pm 14.9 ESE 9 11 1019.6 - - - - - - - - -
22/11:30am 14.8 ESE 10 12 1020.1 - - - - - - - - -
22/11:00am 14.9 ESE 9 12 1020.8 - - - - - - - - -
22/10:30am 14.7 ESE 10 12 1021.1 - - - - - - - - -
22/10:00am 14.7 ESE 10 13 1021.5 - - - - - - - - -
22/09:30am 14.8 SE 9 12 1021.6 - - - - - - - - -
22/09:00am 14.6 SE 11 14 1021.7 - - - - - - - - -
22/08:30am 14.1 SSE 12 16 1021.5 - - - - - - - - -
22/08:00am 13.5 SSE 12 14 1021.7 - - - - - - - - -
22/07:30am 13.4 SSE 11 17 1022.1 - - - - - - - - -
22/07:00am 13.5 SSE 11 15 1022.1 - - - - - - - - -
22/06:30am 13.6 SSE 11 15 1022.6 - - - - - - - - -
22/06:00am 13.8 SE 15 18 1022.4 - - - - - - - - -
22/05:30am 13.7 SE 15 18 1022.6 - - - - - - - - -
22/05:00am 13.7 SE 15 18 1023.0 - - - - - - - - -
22/04:30am 13.7 SE 16 19 1023.3 - - - - - - - - -
22/04:00am 13.8 SE 15 19 1023.8 - - - - - - - - -
22/03:30am 13.7 SE 16 20 1023.8 - - - - - - - - -
22/03:00am 13.6 SE 15 20 1024.4 - - - - - - - - -
22/02:30am 13.4 SE 16 19 1024.9 - - - - - - - - -
22/02:00am 13.3 SE 15 19 1025.7 - - - - - - - - -
22/01:30am 13.1 ESE 13 17 1026.3 - - - - - - - - -
22/01:00am 13.1 ESE 13 15 1026.8 - - - - - - - - -
22/12:30am 13.1 ESE 13 16 1027.2 - - - - - - - - -
22/12:00am 13.1 ESE 14 17 1027.5 - - - - - - - - -
 
Date/Time
EDT
Temp

°C
Wind Pressure Rain
since 9am
mm
Weather Cloud Vis
km
Sea
Height
m
Swell
Dir
 
Speed
knots
Gust
knots
hPa Trend Height
m
Period
s
Dir
21/11:30pm 13.6 E 17 20 1027.7 - - - - - - - - -
21/11:00pm 13.6 E 16 19 1028.2 - - - - - - - - -
21/10:30pm 13.6 E 17 20 1028.3 - - - - - - - - -
21/10:00pm 13.5 E 16 20 1028.4 - - - - - - - - -
21/09:30pm 13.6 E 15 19 1028.4 - - - - - - - - -
21/09:00pm 13.6 E 14 17 1028.6 - - - - - - - - -
21/08:30pm 13.6 E 14 16 1028.4 - - - - - - - - -
21/08:00pm 13.6 E 13 16 1028.5 - - - - - - - - -
21/07:30pm 13.7 E 12 15 1028.4 - - - - - - - - -
21/07:00pm 13.7 E 14 19 1028.0 - - - - - - - - -
21/06:30pm 13.8 E 14 17 1028.4 - - - - - - - - -
21/06:00pm 13.8 E 15 19 1028.5 - - - - - - - - -
21/05:30pm 13.9 E 14 17 1028.9 - - - - - - - - -
21/05:00pm 13.9 E 15 18 1029.3 - - - - - - - - -
21/04:30pm 13.8 E 16 19 1029.3 - - - - - - - - -
21/04:00pm 13.8 E 14 17 1030.0 - - - - - - - - -
21/03:30pm 13.7 ESE 17 20 1030.1 - - - - - - - - -
21/03:00pm 13.6 E 17 20 1030.5 - - - - - - - - -
21/02:30pm 13.5 ESE 19 22 1030.9 - - - - - - - - -
21/02:00pm 13.4 ESE 18 20 1031.3 - - - - - - - - -
21/01:30pm 13.3 ESE 18 20 1031.7 - - - - - - - - -
21/01:00pm 13.2 ESE 18 22 1031.9 - - - - - - - - -
21/12:30pm 12.9 ESE 18 21 1032.4 - - - - - - - - -
21/12:00pm 12.7 ESE 19 22 1032.3 - - - - - - - - -
21/11:30am 12.7 ESE 18 21 1032.7 - - - - - - - - -
21/11:00am 12.5 ESE 17 20 1033.2 - - - - - - - - -
21/10:30am 12.4 ESE 17 21 1033.2 - - - - - - - - -
21/10:00am 12.2 ESE 18 21 1033.4 - - - - - - - - -
21/09:30am 12.2 ESE 18 22 1033.4 - - - - - - - - -
21/09:00am 12.1 ESE 18 21 1033.2 - - - - - - - - -
21/08:30am 12.1 ESE 18 23 1033.1 - - - - - - - - -
21/08:00am 12.1 ESE 16 18 1033.2 - - - - - - - - -
21/07:30am 11.9 SE 15 19 1032.9 - - - - - - - - -
21/07:00am 12.1 SE 14 16 1032.6 - - - - - - - - -
21/06:30am 11.8 ESE 17 20 1032.3 - - - - - - - - -
21/06:00am 11.7 ESE 17 21 1032.0 - - - - - - - - -
21/05:30am 11.5 SE 18 22 1031.8 - - - - - - - - -
21/05:00am 10.9 ESE 15 18 1031.7 - - - - - - - - -
21/04:30am 11.1 ESE 16 20 1031.8 - - - - - - - - -
21/04:00am 10.8 ESE 14 17 1032.2 - - - - - - - - -
21/03:30am 10.7 ESE 12 16 1032.7 - - - - - - - - -
21/03:00am 10.8 ESE 10 13 1032.9 - - - - - - - - -
21/02:30am 10.8 SE 12 15 1033.0 - - - - - - - - -
21/02:00am 10.9 SE 11 13 1033.3 - - - - - - - - -
21/01:30am 10.8 SE 10 14 1033.5 - - - - - - - - -
21/01:00am 11.2 ESE 13 18 1033.6 - - - - - - - - -
21/12:30am 11.3 ESE 12 15 1033.6 - - - - - - - - -
21/12:00am 9.6 S 10 12 1033.9 - - - - - - - - -
 
Date/Time
EDT
Temp

°C
Wind Pressure Rain
since 9am
mm
Weather Cloud Vis
km
Sea
Height
m
Swell
Dir
 
Speed
knots
Gust
knots
hPa Trend Height
m
Period
s
Dir
20/11:30pm 9.6 S 10 11 1034.1 - - - - - - - - -
20/11:00pm 9.6 S 9 11 1034.2 - - - - - - - - -
20/10:30pm 9.6 S 10 11 1034.2 - - - - - - - - -
20/10:00pm 9.9 S 9 10 1034.2 - - - - - - - - -
20/09:30pm 10.1 S 8 9 1034.1 - - - - - - - - -
20/09:00pm 10.4 S 5 7 1033.9 - - - - - - - - -
20/08:30pm 10.5 S 6 7 1033.7 - - - - - - - - -
20/08:00pm 11.4 E 4 6 1033.3 - - - - - - - - -
20/07:30pm 11.3 E 3 5 1033.1 - - - - - - - - -
20/07:00pm 11.4 E 3 5 1033.0 - - - - - - - - -
20/06:30pm 11.5 ENE 1 3 1033.0 - - - - - - - - -
20/06:00pm 11.3 NNE 2 4 1033.2 - - - - - - - - -
20/05:30pm 11.2 N 4 5 1033.2 - - - - - - - - -
20/05:00pm 11.1 NNE 6 9 1033.2 - - - - - - - - -
20/04:30pm 11.2 NNE 8 10 1033.1 - - - - - - - - -
20/04:00pm 11.2 NNE 8 10 1033.1 - - - - - - - - -
20/03:30pm 11.3 NNE 8 10 1033.2 - - - - - - - - -
20/03:00pm 11.0 NNE 8 10 1033.3 - - - - - - - - -
20/02:30pm 10.9 NNE 7 9 1033.5 - - - - - - - - -
20/02:00pm 10.7 NE 7 9 1033.9 - - - - - - - - -
20/01:30pm 10.5 NE 8 9 1034.1 - - - - - - - - -
20/01:00pm 10.3 NE 5 8 1034.3 - - - - - - - - -
20/12:30pm 10.1 NE 5 9 1034.5 - - - - - - - - -
20/12:00pm 9.9 NE 8 11 1034.4 - - - - - - - - -
20/11:30am 9.7 ENE 5 8 1034.4 - - - - - - - - -
20/11:00am 9.5 E 8 10 1034.5 - - - - - - - - -
20/10:30am 9.2 E 8 10 1034.4 - - - - - - - - -
20/10:00am 9.0 E 9 11 1034.2 - - - - - - - - -
20/09:30am 9.0 E 9 12 1034.0 - - - - - - - - -
20/09:00am 9.2 ESE 8 10 1033.6 - - - - - - - - -
20/08:30am 8.3 S 6 8 1033.5 - - - - - - - - -
20/08:00am 8.0 S 8 10 1033.0 - - - - - - - - -
20/07:30am 7.1 S 9 11 1032.5 - - - - - - - - -
20/07:00am 6.3 S 10 12 1031.8 - - - - - - - - -
20/06:30am 6.6 S 12 13 1031.3 - - - - - - - - -
20/06:00am 6.9 S 9 11 1030.8 - - - - - - - - -
20/05:30am 6.1 SSW 9 12 1031.0 - - - - - - - - -
20/05:00am 6.4 S 7 10 1030.6 - - - - - - - - -
20/04:30am 7.1 SW 4 7 1030.3 - - - - - - - - -
20/04:00am 7.4 SSW 6 8 1029.8 - - - - - - - - -
20/03:30am 7.1 SW 6 11 1029.3 - - - - - - - - -
20/03:00am 7.8 WSW 5 9 1029.8 - - - - - - - - -
20/02:30am 8.3 S 6 14 1029.5 - - - - - - - - -
20/02:00am 8.1 SW 9 18 1028.6 - - - - - - - - -
20/01:30am 8.1 SSW 11 14 1028.7 - - - - - - - - -

Other Formats:

Comma delimited format used in spreadsheet applications
http://www.bom.gov.au/fwo/IDT60701/IDT60701.95963.axf

JavaScript Object Notation format (JSON) in row-major order
http://www.bom.gov.au/fwo/IDT60701/IDT60701.95963.json